sensor_id;sensor_type;location;lat;lon;timestamp;P1;durP1;ratioP1;P2;durP2;ratioP2
2838;SDS011;1427;48.510;9.060;2023-05-13T00:02:12;46.90;;;1.70;;
2838;SDS011;1427;48.510;9.060;2023-05-13T00:04:40;46.57;;;2.20;;
2838;SDS011;1427;48.510;9.060;2023-05-13T00:07:08;46.77;;;2.53;;
2838;SDS011;1427;48.510;9.060;2023-05-13T00:09:36;46.30;;;1.97;;
2838;SDS011;1427;48.510;9.060;2023-05-13T00:12:04;45.77;;;1.83;;
2838;SDS011;1427;48.510;9.060;2023-05-13T00:14:33;46.30;;;2.03;;
2838;SDS011;1427;48.510;9.060;2023-05-13T00:17:01;46.87;;;2.27;;
2838;SDS011;1427;48.510;9.060;2023-05-13T00:19:31;54.23;;;2.13;;
2838;SDS011;1427;48.510;9.060;2023-05-13T00:21:59;45.70;;;1.80;;
2838;SDS011;1427;48.510;9.060;2023-05-13T00:24:27;45.87;;;1.70;;
2838;SDS011;1427;48.510;9.060;2023-05-13T00:26:55;46.27;;;1.90;;
2838;SDS011;1427;48.510;9.060;2023-05-13T00:29:23;51.37;;;1.90;;
2838;SDS011;1427;48.510;9.060;2023-05-13T00:31:51;46.37;;;1.80;;
2838;SDS011;1427;48.510;9.060;2023-05-13T00:34:19;45.93;;;1.97;;
2838;SDS011;1427;48.510;9.060;2023-05-13T00:36:49;46.03;;;1.90;;
2838;SDS011;1427;48.510;9.060;2023-05-13T00:39:17;45.70;;;1.67;;
2838;SDS011;1427;48.510;9.060;2023-05-13T00:41:45;47.80;;;2.23;;
2838;SDS011;1427;48.510;9.060;2023-05-13T00:44:13;46.57;;;1.93;;
2838;SDS011;1427;48.510;9.060;2023-05-13T00:46:41;46.60;;;1.77;;
2838;SDS011;1427;48.510;9.060;2023-05-13T00:49:10;46.10;;;1.70;;
2838;SDS011;1427;48.510;9.060;2023-05-13T00:51:38;45.97;;;1.70;;
2838;SDS011;1427;48.510;9.060;2023-05-13T00:54:07;47.10;;;2.13;;
2838;SDS011;1427;48.510;9.060;2023-05-13T00:56:36;47.00;;;2.23;;
2838;SDS011;1427;48.510;9.060;2023-05-13T00:59:04;46.80;;;2.03;;
2838;SDS011;1427;48.510;9.060;2023-05-13T01:01:33;47.70;;;2.30;;
2838;SDS011;1427;48.510;9.060;2023-05-13T01:04:08;46.40;;;2.03;;
2838;SDS011;1427;48.510;9.060;2023-05-13T01:06:45;46.53;;;1.80;;
2838;SDS011;1427;48.510;9.060;2023-05-13T01:09:20;46.07;;;1.87;;
2838;SDS011;1427;48.510;9.060;2023-05-13T01:11:56;47.83;;;2.50;;
2838;SDS011;1427;48.510;9.060;2023-05-13T01:14:32;46.10;;;1.60;;
2838;SDS011;1427;48.510;9.060;2023-05-13T01:17:04;47.40;;;2.13;;
2838;SDS011;1427;48.510;9.060;2023-05-13T01:19:38;45.63;;;1.47;;
2838;SDS011;1427;48.510;9.060;2023-05-13T01:22:11;45.80;;;1.47;;
2838;SDS011;1427;48.510;9.060;2023-05-13T01:24:39;45.60;;;1.43;;
2838;SDS011;1427;48.510;9.060;2023-05-13T01:27:07;45.47;;;1.67;;
2838;SDS011;1427;48.510;9.060;2023-05-13T01:29:36;47.87;;;2.57;;
2838;SDS011;1427;48.510;9.060;2023-05-13T01:32:06;46.53;;;1.90;;
2838;SDS011;1427;48.510;9.060;2023-05-13T01:34:36;45.97;;;1.70;;
2838;SDS011;1427;48.510;9.060;2023-05-13T01:37:06;46.13;;;1.87;;
2838;SDS011;1427;48.510;9.060;2023-05-13T01:39:35;46.80;;;2.03;;
2838;SDS011;1427;48.510;9.060;2023-05-13T01:42:04;46.27;;;1.90;;
2838;SDS011;1427;48.510;9.060;2023-05-13T01:44:33;47.43;;;2.23;;
2838;SDS011;1427;48.510;9.060;2023-05-13T01:47:01;47.30;;;2.87;;
2838;SDS011;1427;48.510;9.060;2023-05-13T01:49:29;46.30;;;1.90;;
2838;SDS011;1427;48.510;9.060;2023-05-13T01:51:57;47.30;;;2.63;;
2838;SDS011;1427;48.510;9.060;2023-05-13T01:54:25;47.40;;;2.00;;
2838;SDS011;1427;48.510;9.060;2023-05-13T01:56:55;46.80;;;2.20;;
2838;SDS011;1427;48.510;9.060;2023-05-13T01:59:23;46.57;;;1.70;;
2838;SDS011;1427;48.510;9.060;2023-05-13T02:01:51;47.07;;;1.93;;
2838;SDS011;1427;48.510;9.060;2023-05-13T02:04:19;46.80;;;2.30;;
2838;SDS011;1427;48.510;9.060;2023-05-13T02:06:47;46.23;;;1.90;;
2838;SDS011;1427;48.510;9.060;2023-05-13T02:09:15;45.77;;;1.60;;
2838;SDS011;1427;48.510;9.060;2023-05-13T02:11:44;47.17;;;2.23;;
2838;SDS011;1427;48.510;9.060;2023-05-13T02:14:13;46.17;;;1.90;;
2838;SDS011;1427;48.510;9.060;2023-05-13T02:16:41;47.20;;;2.30;;
2838;SDS011;1427;48.510;9.060;2023-05-13T02:19:09;46.23;;;2.03;;
2838;SDS011;1427;48.510;9.060;2023-05-13T02:21:38;48.67;;;2.57;;
2838;SDS011;1427;48.510;9.060;2023-05-13T02:24:06;46.90;;;2.63;;
2838;SDS011;1427;48.510;9.060;2023-05-13T02:26:35;46.37;;;1.80;;
2838;SDS011;1427;48.510;9.060;2023-05-13T02:29:03;46.93;;;2.40;;
2838;SDS011;1427;48.510;9.060;2023-05-13T02:31:32;46.47;;;2.13;;
2838;SDS011;1427;48.510;9.060;2023-05-13T02:34:02;46.60;;;1.77;;
2838;SDS011;1427;48.510;9.060;2023-05-13T02:36:30;46.63;;;2.20;;
2838;SDS011;1427;48.510;9.060;2023-05-13T02:38:58;47.37;;;2.40;;
2838;SDS011;1427;48.510;9.060;2023-05-13T02:41:26;47.17;;;1.70;;
2838;SDS011;1427;48.510;9.060;2023-05-13T02:43:54;47.20;;;2.30;;
2838;SDS011;1427;48.510;9.060;2023-05-13T02:46:22;46.00;;;2.03;;
2838;SDS011;1427;48.510;9.060;2023-05-13T02:48:52;48.00;;;2.70;;
2838;SDS011;1427;48.510;9.060;2023-05-13T02:51:20;47.13;;;2.30;;
2838;SDS011;1427;48.510;9.060;2023-05-13T02:53:48;49.17;;;2.27;;
2838;SDS011;1427;48.510;9.060;2023-05-13T02:56:16;47.77;;;2.10;;
2838;SDS011;1427;48.510;9.060;2023-05-13T02:58:44;47.17;;;2.43;;
2838;SDS011;1427;48.510;9.060;2023-05-13T03:01:13;46.67;;;2.30;;
2838;SDS011;1427;48.510;9.060;2023-05-13T03:03:41;46.47;;;1.90;;
2838;SDS011;1427;48.510;9.060;2023-05-13T03:06:10;47.03;;;2.43;;
2838;SDS011;1427;48.510;9.060;2023-05-13T03:08:38;46.20;;;1.80;;
2838;SDS011;1427;48.510;9.060;2023-05-13T03:11:06;46.50;;;2.30;;
2838;SDS011;1427;48.510;9.060;2023-05-13T03:13:34;46.80;;;2.13;;
2838;SDS011;1427;48.510;9.060;2023-05-13T03:16:02;47.67;;;2.77;;
2838;SDS011;1427;48.510;9.060;2023-05-13T03:18:31;46.37;;;2.10;;
2838;SDS011;1427;48.510;9.060;2023-05-13T03:20:59;46.60;;;2.10;;
2838;SDS011;1427;48.510;9.060;2023-05-13T03:23:28;46.50;;;2.03;;
2838;SDS011;1427;48.510;9.060;2023-05-13T03:25:56;46.97;;;2.83;;
2838;SDS011;1427;48.510;9.060;2023-05-13T03:28:25;45.97;;;1.87;;
2838;SDS011;1427;48.510;9.060;2023-05-13T03:30:53;46.77;;;1.90;;
2838;SDS011;1427;48.510;9.060;2023-05-13T03:33:21;46.97;;;1.90;;
2838;SDS011;1427;48.510;9.060;2023-05-13T03:35:49;48.83;;;2.20;;
2838;SDS011;1427;48.510;9.060;2023-05-13T03:38:17;47.30;;;2.10;;
2838;SDS011;1427;48.510;9.060;2023-05-13T03:40:46;46.60;;;1.80;;
2838;SDS011;1427;48.510;9.060;2023-05-13T03:43:15;46.57;;;1.90;;
2838;SDS011;1427;48.510;9.060;2023-05-13T03:45:43;45.97;;;1.80;;
2838;SDS011;1427;48.510;9.060;2023-05-13T03:48:13;46.87;;;2.03;;
2838;SDS011;1427;48.510;9.060;2023-05-13T03:50:41;46.77;;;1.80;;
2838;SDS011;1427;48.510;9.060;2023-05-13T03:53:09;46.40;;;1.90;;
2838;SDS011;1427;48.510;9.060;2023-05-13T03:55:38;47.30;;;2.10;;
2838;SDS011;1427;48.510;9.060;2023-05-13T03:58:11;47.33;;;2.80;;
2838;SDS011;1427;48.510;9.060;2023-05-13T04:00:40;46.13;;;1.70;;
2838;SDS011;1427;48.510;9.060;2023-05-13T04:03:12;46.87;;;2.33;;
2838;SDS011;1427;48.510;9.060;2023-05-13T04:05:41;46.47;;;1.80;;
2838;SDS011;1427;48.510;9.060;2023-05-13T04:08:10;45.67;;;1.27;;
2838;SDS011;1427;48.510;9.060;2023-05-13T04:10:38;46.87;;;1.80;;
2838;SDS011;1427;48.510;9.060;2023-05-13T04:13:06;45.60;;;1.50;;
2838;SDS011;1427;48.510;9.060;2023-05-13T04:15:36;47.00;;;1.97;;
2838;SDS011;1427;48.510;9.060;2023-05-13T04:18:04;46.90;;;2.00;;
2838;SDS011;1427;48.510;9.060;2023-05-13T04:20:32;46.87;;;1.80;;
2838;SDS011;1427;48.510;9.060;2023-05-13T04:23:00;46.10;;;1.87;;
2838;SDS011;1427;48.510;9.060;2023-05-13T04:25:29;47.10;;;1.57;;
2838;SDS011;1427;48.510;9.060;2023-05-13T04:27:57;47.07;;;2.13;;
2838;SDS011;1427;48.510;9.060;2023-05-13T04:30:25;46.90;;;2.20;;
2838;SDS011;1427;48.510;9.060;2023-05-13T04:32:54;46.40;;;1.70;;
2838;SDS011;1427;48.510;9.060;2023-05-13T04:35:23;46.30;;;1.70;;
2838;SDS011;1427;48.510;9.060;2023-05-13T04:37:51;45.97;;;1.60;;
2838;SDS011;1427;48.510;9.060;2023-05-13T04:40:19;46.67;;;3.03;;
2838;SDS011;1427;48.510;9.060;2023-05-13T04:42:47;47.40;;;3.77;;
2838;SDS011;1427;48.510;9.060;2023-05-13T04:45:20;48.87;;;5.80;;
2838;SDS011;1427;48.510;9.060;2023-05-13T04:47:49;49.70;;;5.70;;
2838;SDS011;1427;48.510;9.060;2023-05-13T04:50:18;50.00;;;6.83;;
2838;SDS011;1427;48.510;9.060;2023-05-13T04:52:47;47.57;;;4.67;;
2838;SDS011;1427;48.510;9.060;2023-05-13T04:55:15;48.00;;;5.00;;
2838;SDS011;1427;48.510;9.060;2023-05-13T04:57:44;48.57;;;4.93;;
2838;SDS011;1427;48.510;9.060;2023-05-13T05:00:12;48.70;;;4.77;;
2838;SDS011;1427;48.510;9.060;2023-05-13T05:02:41;48.23;;;4.97;;
2838;SDS011;1427;48.510;9.060;2023-05-13T05:05:09;48.10;;;4.33;;
2838;SDS011;1427;48.510;9.060;2023-05-13T05:07:39;47.17;;;4.17;;
2838;SDS011;1427;48.510;9.060;2023-05-13T05:10:07;47.20;;;4.53;;
2838;SDS011;1427;48.510;9.060;2023-05-13T05:12:36;50.93;;;4.70;;
2838;SDS011;1427;48.510;9.060;2023-05-13T05:15:04;47.77;;;4.80;;
2838;SDS011;1427;48.510;9.060;2023-05-13T05:17:40;47.40;;;4.43;;
2838;SDS011;1427;48.510;9.060;2023-05-13T05:20:09;48.27;;;5.10;;
2838;SDS011;1427;48.510;9.060;2023-05-13T05:22:40;47.90;;;4.17;;
2838;SDS011;1427;48.510;9.060;2023-05-13T05:25:08;47.17;;;3.70;;
2838;SDS011;1427;48.510;9.060;2023-05-13T05:27:37;48.50;;;4.50;;
2838;SDS011;1427;48.510;9.060;2023-05-13T05:30:05;48.00;;;4.90;;
2838;SDS011;1427;48.510;9.060;2023-05-13T05:32:35;48.07;;;4.27;;
2838;SDS011;1427;48.510;9.060;2023-05-13T05:35:03;47.67;;;3.87;;
2838;SDS011;1427;48.510;9.060;2023-05-13T05:37:33;53.63;;;5.33;;
2838;SDS011;1427;48.510;9.060;2023-05-13T05:40:03;48.73;;;4.43;;
2838;SDS011;1427;48.510;9.060;2023-05-13T05:42:32;47.60;;;4.17;;
2838;SDS011;1427;48.510;9.060;2023-05-13T05:45:00;47.87;;;4.47;;
2838;SDS011;1427;48.510;9.060;2023-05-13T05:47:29;51.07;;;4.80;;
2838;SDS011;1427;48.510;9.060;2023-05-13T05:49:57;47.70;;;4.53;;
2838;SDS011;1427;48.510;9.060;2023-05-13T05:52:25;48.63;;;5.23;;
2838;SDS011;1427;48.510;9.060;2023-05-13T05:54:53;47.87;;;4.20;;
2838;SDS011;1427;48.510;9.060;2023-05-13T05:57:22;49.40;;;6.33;;
2838;SDS011;1427;48.510;9.060;2023-05-13T05:59:50;48.33;;;4.20;;
2838;SDS011;1427;48.510;9.060;2023-05-13T06:02:18;49.60;;;5.93;;
2838;SDS011;1427;48.510;9.060;2023-05-13T06:04:46;49.93;;;5.20;;
2838;SDS011;1427;48.510;9.060;2023-05-13T06:07:14;47.00;;;3.47;;
2838;SDS011;1427;48.510;9.060;2023-05-13T06:09:43;49.17;;;5.30;;
2838;SDS011;1427;48.510;9.060;2023-05-13T06:12:11;49.03;;;5.07;;
2838;SDS011;1427;48.510;9.060;2023-05-13T06:14:40;49.77;;;4.70;;
2838;SDS011;1427;48.510;9.060;2023-05-13T06:17:09;48.10;;;4.77;;
2838;SDS011;1427;48.510;9.060;2023-05-13T06:19:39;53.20;;;5.30;;
2838;SDS011;1427;48.510;9.060;2023-05-13T06:22:08;48.57;;;5.30;;
2838;SDS011;1427;48.510;9.060;2023-05-13T06:24:37;53.20;;;5.20;;
2838;SDS011;1427;48.510;9.060;2023-05-13T06:27:08;49.90;;;4.90;;
2838;SDS011;1427;48.510;9.060;2023-05-13T06:29:37;50.90;;;6.00;;
2838;SDS011;1427;48.510;9.060;2023-05-13T06:32:06;50.83;;;4.47;;
2838;SDS011;1427;48.510;9.060;2023-05-13T06:34:34;49.97;;;4.90;;
2838;SDS011;1427;48.510;9.060;2023-05-13T06:37:03;49.27;;;4.50;;
2838;SDS011;1427;48.510;9.060;2023-05-13T06:39:31;54.90;;;6.20;;
2838;SDS011;1427;48.510;9.060;2023-05-13T06:41:59;49.90;;;5.27;;
2838;SDS011;1427;48.510;9.060;2023-05-13T06:44:27;48.33;;;4.87;;
2838;SDS011;1427;48.510;9.060;2023-05-13T06:46:55;49.43;;;4.60;;
2838;SDS011;1427;48.510;9.060;2023-05-13T06:49:25;50.70;;;5.30;;
2838;SDS011;1427;48.510;9.060;2023-05-13T06:51:53;52.50;;;5.77;;
2838;SDS011;1427;48.510;9.060;2023-05-13T06:54:21;53.73;;;6.53;;
2838;SDS011;1427;48.510;9.060;2023-05-13T06:56:52;53.60;;;5.20;;
2838;SDS011;1427;48.510;9.060;2023-05-13T06:59:20;48.90;;;5.30;;
2838;SDS011;1427;48.510;9.060;2023-05-13T07:01:48;47.70;;;4.43;;
2838;SDS011;1427;48.510;9.060;2023-05-13T07:04:16;50.20;;;7.20;;
2838;SDS011;1427;48.510;9.060;2023-05-13T07:06:46;55.00;;;7.33;;
2838;SDS011;1427;48.510;9.060;2023-05-13T07:09:14;54.03;;;6.60;;
2838;SDS011;1427;48.510;9.060;2023-05-13T07:11:42;49.37;;;5.37;;
2838;SDS011;1427;48.510;9.060;2023-05-13T07:14:10;49.10;;;5.77;;
2838;SDS011;1427;48.510;9.060;2023-05-13T07:16:38;49.10;;;5.60;;
2838;SDS011;1427;48.510;9.060;2023-05-13T07:19:06;54.83;;;7.00;;
2838;SDS011;1427;48.510;9.060;2023-05-13T07:21:35;49.97;;;5.20;;
2838;SDS011;1427;48.510;9.060;2023-05-13T07:24:04;49.00;;;4.80;;
2838;SDS011;1427;48.510;9.060;2023-05-13T07:26:32;50.07;;;6.50;;
2838;SDS011;1427;48.510;9.060;2023-05-13T07:29:00;49.30;;;5.43;;
2838;SDS011;1427;48.510;9.060;2023-05-13T07:31:28;51.10;;;5.67;;
2838;SDS011;1427;48.510;9.060;2023-05-13T07:33:57;53.30;;;6.63;;
2838;SDS011;1427;48.510;9.060;2023-05-13T07:36:25;51.37;;;5.50;;
2838;SDS011;1427;48.510;9.060;2023-05-13T07:38:53;49.97;;;5.17;;
2838;SDS011;1427;48.510;9.060;2023-05-13T07:41:22;48.90;;;4.53;;
2838;SDS011;1427;48.510;9.060;2023-05-13T07:43:50;48.97;;;4.20;;
2838;SDS011;1427;48.510;9.060;2023-05-13T07:46:18;49.50;;;5.60;;
2838;SDS011;1427;48.510;9.060;2023-05-13T07:48:46;48.80;;;4.93;;
2838;SDS011;1427;48.510;9.060;2023-05-13T07:51:15;50.10;;;5.33;;
2838;SDS011;1427;48.510;9.060;2023-05-13T07:53:44;54.07;;;6.67;;
2838;SDS011;1427;48.510;9.060;2023-05-13T07:56:12;50.03;;;5.10;;
2838;SDS011;1427;48.510;9.060;2023-05-13T07:58:42;48.67;;;5.50;;
2838;SDS011;1427;48.510;9.060;2023-05-13T08:01:11;48.20;;;4.43;;
2838;SDS011;1427;48.510;9.060;2023-05-13T08:03:39;48.90;;;6.23;;
2838;SDS011;1427;48.510;9.060;2023-05-13T08:06:07;48.90;;;4.93;;
2838;SDS011;1427;48.510;9.060;2023-05-13T08:08:36;51.60;;;4.77;;
2838;SDS011;1427;48.510;9.060;2023-05-13T08:11:04;51.53;;;6.20;;
2838;SDS011;1427;48.510;9.060;2023-05-13T08:13:32;50.47;;;6.10;;
2838;SDS011;1427;48.510;9.060;2023-05-13T08:16:02;49.13;;;5.77;;
2838;SDS011;1427;48.510;9.060;2023-05-13T08:18:32;51.10;;;5.80;;
2838;SDS011;1427;48.510;9.060;2023-05-13T08:21:00;50.63;;;5.30;;
2838;SDS011;1427;48.510;9.060;2023-05-13T08:23:28;48.83;;;5.17;;
2838;SDS011;1427;48.510;9.060;2023-05-13T08:26:10;50.40;;;5.70;;
2838;SDS011;1427;48.510;9.060;2023-05-13T08:28:38;51.20;;;5.90;;
2838;SDS011;1427;48.510;9.060;2023-05-13T08:31:10;52.23;;;7.53;;
2838;SDS011;1427;48.510;9.060;2023-05-13T08:33:39;48.43;;;5.23;;
2838;SDS011;1427;48.510;9.060;2023-05-13T08:36:08;51.50;;;5.63;;
2838;SDS011;1427;48.510;9.060;2023-05-13T08:38:36;48.73;;;5.60;;
2838;SDS011;1427;48.510;9.060;2023-05-13T08:41:05;49.97;;;5.77;;
2838;SDS011;1427;48.510;9.060;2023-05-13T08:43:33;49.90;;;5.93;;
2838;SDS011;1427;48.510;9.060;2023-05-13T08:46:05;48.07;;;5.07;;
2838;SDS011;1427;48.510;9.060;2023-05-13T08:48:37;51.00;;;5.53;;
2838;SDS011;1427;48.510;9.060;2023-05-13T08:51:07;56.40;;;5.87;;
2838;SDS011;1427;48.510;9.060;2023-05-13T08:53:36;48.37;;;5.00;;
2838;SDS011;1427;48.510;9.060;2023-05-13T08:56:06;50.70;;;5.77;;
2838;SDS011;1427;48.510;9.060;2023-05-13T08:58:35;50.30;;;6.20;;
2838;SDS011;1427;48.510;9.060;2023-05-13T09:01:04;48.40;;;5.03;;
2838;SDS011;1427;48.510;9.060;2023-05-13T09:03:33;49.33;;;4.90;;
2838;SDS011;1427;48.510;9.060;2023-05-13T09:06:03;49.30;;;4.83;;
2838;SDS011;1427;48.510;9.060;2023-05-13T09:08:32;50.37;;;4.57;;
2838;SDS011;1427;48.510;9.060;2023-05-13T09:11:00;50.07;;;5.70;;
2838;SDS011;1427;48.510;9.060;2023-05-13T09:13:28;50.87;;;5.23;;
2838;SDS011;1427;48.510;9.060;2023-05-13T09:15:56;49.20;;;5.93;;
2838;SDS011;1427;48.510;9.060;2023-05-13T09:18:28;66.60;;;11.10;;
2838;SDS011;1427;48.510;9.060;2023-05-13T09:20:57;52.90;;;6.33;;
2838;SDS011;1427;48.510;9.060;2023-05-13T09:23:54;49.67;;;5.47;;
2838;SDS011;1427;48.510;9.060;2023-05-13T09:26:29;50.57;;;6.23;;
2838;SDS011;1427;48.510;9.060;2023-05-13T09:29:13;54.80;;;6.00;;
2838;SDS011;1427;48.510;9.060;2023-05-13T09:31:43;51.10;;;6.07;;
2838;SDS011;1427;48.510;9.060;2023-05-13T09:34:11;49.23;;;5.30;;
2838;SDS011;1427;48.510;9.060;2023-05-13T09:36:40;48.47;;;4.67;;
2838;SDS011;1427;48.510;9.060;2023-05-13T09:39:09;47.97;;;4.60;;
2838;SDS011;1427;48.510;9.060;2023-05-13T09:41:38;49.20;;;4.50;;
2838;SDS011;1427;48.510;9.060;2023-05-13T09:44:07;51.00;;;4.90;;
2838;SDS011;1427;48.510;9.060;2023-05-13T09:46:37;50.27;;;5.57;;
2838;SDS011;1427;48.510;9.060;2023-05-13T09:49:06;50.90;;;5.03;;
2838;SDS011;1427;48.510;9.060;2023-05-13T09:51:35;48.30;;;4.17;;
2838;SDS011;1427;48.510;9.060;2023-05-13T09:54:05;49.57;;;4.83;;
2838;SDS011;1427;48.510;9.060;2023-05-13T09:56:38;49.80;;;5.67;;
2838;SDS011;1427;48.510;9.060;2023-05-13T09:59:06;51.47;;;4.97;;
2838;SDS011;1427;48.510;9.060;2023-05-13T10:01:34;49.73;;;5.50;;
2838;SDS011;1427;48.510;9.060;2023-05-13T10:04:03;49.30;;;5.13;;
2838;SDS011;1427;48.510;9.060;2023-05-13T10:06:31;50.80;;;4.47;;
2838;SDS011;1427;48.510;9.060;2023-05-13T10:09:00;50.17;;;5.40;;
2838;SDS011;1427;48.510;9.060;2023-05-13T10:11:31;51.37;;;5.40;;
2838;SDS011;1427;48.510;9.060;2023-05-13T10:14:01;49.70;;;5.27;;
2838;SDS011;1427;48.510;9.060;2023-05-13T10:16:32;57.57;;;5.90;;
2838;SDS011;1427;48.510;9.060;2023-05-13T10:19:00;51.50;;;5.07;;
2838;SDS011;1427;48.510;9.060;2023-05-13T10:21:30;48.37;;;4.63;;
2838;SDS011;1427;48.510;9.060;2023-05-13T10:23:58;48.17;;;4.20;;
2838;SDS011;1427;48.510;9.060;2023-05-13T10:26:27;51.40;;;6.13;;
2838;SDS011;1427;48.510;9.060;2023-05-13T10:28:57;51.00;;;6.10;;
2838;SDS011;1427;48.510;9.060;2023-05-13T10:31:26;51.27;;;4.87;;
2838;SDS011;1427;48.510;9.060;2023-05-13T10:33:56;48.27;;;4.20;;
2838;SDS011;1427;48.510;9.060;2023-05-13T10:36:40;50.37;;;4.77;;
2838;SDS011;1427;48.510;9.060;2023-05-13T10:39:25;47.67;;;4.10;;
2838;SDS011;1427;48.510;9.060;2023-05-13T10:42:10;51.80;;;5.50;;
2838;SDS011;1427;48.510;9.060;2023-05-13T10:45:04;48.17;;;4.40;;
2838;SDS011;1427;48.510;9.060;2023-05-13T10:47:34;49.30;;;4.63;;
2838;SDS011;1427;48.510;9.060;2023-05-13T10:50:04;49.30;;;4.57;;
2838;SDS011;1427;48.510;9.060;2023-05-13T10:52:42;61.10;;;5.70;;
2838;SDS011;1427;48.510;9.060;2023-05-13T10:55:14;53.80;;;6.93;;
2838;SDS011;1427;48.510;9.060;2023-05-13T11:00:41;66.90;;;12.70;;
2838;SDS011;1427;48.510;9.060;2023-05-13T11:03:13;57.60;;;7.20;;
2838;SDS011;1427;48.510;9.060;2023-05-13T11:05:58;54.60;;;6.00;;
2838;SDS011;1427;48.510;9.060;2023-05-13T11:08:37;51.67;;;5.57;;
2838;SDS011;1427;48.510;9.060;2023-05-13T11:11:22;53.93;;;6.07;;
2838;SDS011;1427;48.510;9.060;2023-05-13T11:13:53;50.87;;;5.17;;
2838;SDS011;1427;48.510;9.060;2023-05-13T11:16:24;56.53;;;6.23;;
2838;SDS011;1427;48.510;9.060;2023-05-13T11:18:52;49.57;;;4.53;;
2838;SDS011;1427;48.510;9.060;2023-05-13T11:21:29;49.67;;;5.70;;
2838;SDS011;1427;48.510;9.060;2023-05-13T11:24:00;48.90;;;4.50;;
2838;SDS011;1427;48.510;9.060;2023-05-13T11:26:41;49.23;;;4.93;;
2838;SDS011;1427;48.510;9.060;2023-05-13T11:29:14;49.30;;;5.70;;
2838;SDS011;1427;48.510;9.060;2023-05-13T11:31:56;56.60;;;6.90;;
2838;SDS011;1427;48.510;9.060;2023-05-13T11:34:26;49.77;;;4.63;;
2838;SDS011;1427;48.510;9.060;2023-05-13T11:36:56;48.67;;;4.80;;
2838;SDS011;1427;48.510;9.060;2023-05-13T11:39:33;48.77;;;4.43;;
2838;SDS011;1427;48.510;9.060;2023-05-13T11:42:05;51.07;;;5.47;;
2838;SDS011;1427;48.510;9.060;2023-05-13T11:44:34;49.37;;;5.03;;
2838;SDS011;1427;48.510;9.060;2023-05-13T11:47:04;49.07;;;5.13;;
2838;SDS011;1427;48.510;9.060;2023-05-13T11:49:34;48.63;;;4.43;;
2838;SDS011;1427;48.510;9.060;2023-05-13T11:52:05;49.23;;;5.60;;
2838;SDS011;1427;48.510;9.060;2023-05-13T11:54:40;50.00;;;5.17;;
2838;SDS011;1427;48.510;9.060;2023-05-13T11:57:13;49.80;;;5.27;;
2838;SDS011;1427;48.510;9.060;2023-05-13T11:59:51;51.00;;;4.97;;
2838;SDS011;1427;48.510;9.060;2023-05-13T12:02:25;48.97;;;4.57;;
2838;SDS011;1427;48.510;9.060;2023-05-13T12:04:58;47.97;;;4.63;;
2838;SDS011;1427;48.510;9.060;2023-05-13T12:07:27;48.23;;;4.90;;
2838;SDS011;1427;48.510;9.060;2023-05-13T12:09:55;50.37;;;5.50;;
2838;SDS011;1427;48.510;9.060;2023-05-13T12:12:24;48.27;;;4.40;;
2838;SDS011;1427;48.510;9.060;2023-05-13T12:14:54;51.63;;;5.80;;
2838;SDS011;1427;48.510;9.060;2023-05-13T12:17:23;52.17;;;7.87;;
2838;SDS011;1427;48.510;9.060;2023-05-13T12:20:09;48.60;;;4.37;;
2838;SDS011;1427;48.510;9.060;2023-05-13T12:25:42;48.37;;;4.90;;
2838;SDS011;1427;48.510;9.060;2023-05-13T12:28:13;47.63;;;4.60;;
2838;SDS011;1427;48.510;9.060;2023-05-13T12:30:49;50.63;;;5.10;;
2838;SDS011;1427;48.510;9.060;2023-05-13T12:33:19;50.70;;;4.47;;
2838;SDS011;1427;48.510;9.060;2023-05-13T12:35:50;49.30;;;5.10;;
2838;SDS011;1427;48.510;9.060;2023-05-13T12:38:20;50.07;;;3.90;;
2838;SDS011;1427;48.510;9.060;2023-05-13T12:40:50;47.67;;;4.47;;
2838;SDS011;1427;48.510;9.060;2023-05-13T12:43:19;47.90;;;4.27;;
2838;SDS011;1427;48.510;9.060;2023-05-13T12:45:51;47.90;;;3.93;;
2838;SDS011;1427;48.510;9.060;2023-05-13T12:48:22;49.60;;;4.57;;
2838;SDS011;1427;48.510;9.060;2023-05-13T12:50:53;48.60;;;4.23;;
2838;SDS011;1427;48.510;9.060;2023-05-13T12:53:22;52.00;;;6.00;;
2838;SDS011;1427;48.510;9.060;2023-05-13T12:55:50;48.97;;;4.40;;
2838;SDS011;1427;48.510;9.060;2023-05-13T12:58:18;52.20;;;4.53;;
2838;SDS011;1427;48.510;9.060;2023-05-13T13:00:46;48.47;;;4.07;;
2838;SDS011;1427;48.510;9.060;2023-05-13T13:03:15;47.83;;;4.60;;
2838;SDS011;1427;48.510;9.060;2023-05-13T13:05:43;48.20;;;4.50;;
2838;SDS011;1427;48.510;9.060;2023-05-13T13:08:12;50.20;;;4.77;;
2838;SDS011;1427;48.510;9.060;2023-05-13T13:10:40;47.93;;;3.90;;
2838;SDS011;1427;48.510;9.060;2023-05-13T13:13:08;49.23;;;4.23;;
2838;SDS011;1427;48.510;9.060;2023-05-13T13:15:36;47.87;;;4.50;;
2838;SDS011;1427;48.510;9.060;2023-05-13T13:18:05;50.67;;;5.03;;
2838;SDS011;1427;48.510;9.060;2023-05-13T13:20:33;48.50;;;4.73;;
2838;SDS011;1427;48.510;9.060;2023-05-13T13:23:02;49.77;;;4.87;;
2838;SDS011;1427;48.510;9.060;2023-05-13T13:25:32;48.27;;;4.20;;
2838;SDS011;1427;48.510;9.060;2023-05-13T13:28:00;53.37;;;4.80;;
2838;SDS011;1427;48.510;9.060;2023-05-13T13:30:29;48.53;;;4.63;;
2838;SDS011;1427;48.510;9.060;2023-05-13T13:32:57;48.70;;;4.57;;
2838;SDS011;1427;48.510;9.060;2023-05-13T13:35:25;48.00;;;4.53;;
2838;SDS011;1427;48.510;9.060;2023-05-13T13:37:53;48.30;;;5.17;;
2838;SDS011;1427;48.510;9.060;2023-05-13T13:40:21;47.67;;;4.87;;
2838;SDS011;1427;48.510;9.060;2023-05-13T13:42:51;48.27;;;4.63;;
2838;SDS011;1427;48.510;9.060;2023-05-13T13:45:19;48.10;;;4.57;;
2838;SDS011;1427;48.510;9.060;2023-05-13T13:47:49;47.90;;;4.30;;
2838;SDS011;1427;48.510;9.060;2023-05-13T13:50:17;48.70;;;4.90;;
2838;SDS011;1427;48.510;9.060;2023-05-13T13:52:45;48.43;;;4.63;;
2838;SDS011;1427;48.510;9.060;2023-05-13T13:55:13;48.60;;;4.83;;
2838;SDS011;1427;48.510;9.060;2023-05-13T13:57:41;51.20;;;5.00;;
2838;SDS011;1427;48.510;9.060;2023-05-13T14:00:11;49.43;;;5.17;;
2838;SDS011;1427;48.510;9.060;2023-05-13T14:02:40;49.60;;;5.10;;
2838;SDS011;1427;48.510;9.060;2023-05-13T14:05:09;48.50;;;4.60;;
2838;SDS011;1427;48.510;9.060;2023-05-13T14:07:37;47.80;;;4.57;;
2838;SDS011;1427;48.510;9.060;2023-05-13T14:10:07;48.93;;;4.80;;
2838;SDS011;1427;48.510;9.060;2023-05-13T14:12:36;49.53;;;5.70;;
2838;SDS011;1427;48.510;9.060;2023-05-13T14:15:05;50.93;;;4.80;;
2838;SDS011;1427;48.510;9.060;2023-05-13T14:17:35;49.40;;;4.90;;
2838;SDS011;1427;48.510;9.060;2023-05-13T14:20:03;53.63;;;5.33;;
2838;SDS011;1427;48.510;9.060;2023-05-13T14:22:32;50.40;;;5.23;;
2838;SDS011;1427;48.510;9.060;2023-05-13T14:25:00;49.30;;;5.53;;
2838;SDS011;1427;48.510;9.060;2023-05-13T14:27:28;50.80;;;5.00;;
2838;SDS011;1427;48.510;9.060;2023-05-13T14:29:58;49.40;;;5.37;;
2838;SDS011;1427;48.510;9.060;2023-05-13T14:32:26;48.77;;;4.50;;
2838;SDS011;1427;48.510;9.060;2023-05-13T14:34:55;52.90;;;5.30;;
2838;SDS011;1427;48.510;9.060;2023-05-13T14:37:23;49.70;;;4.77;;
2838;SDS011;1427;48.510;9.060;2023-05-13T14:39:51;49.60;;;4.30;;
2838;SDS011;1427;48.510;9.060;2023-05-13T14:42:19;48.23;;;4.50;;
2838;SDS011;1427;48.510;9.060;2023-05-13T14:44:47;51.90;;;5.10;;
2838;SDS011;1427;48.510;9.060;2023-05-13T14:47:15;49.60;;;5.37;;
2838;SDS011;1427;48.510;9.060;2023-05-13T14:49:43;51.20;;;6.57;;
2838;SDS011;1427;48.510;9.060;2023-05-13T14:52:13;51.70;;;6.30;;
2838;SDS011;1427;48.510;9.060;2023-05-13T14:54:41;47.87;;;3.93;;
2838;SDS011;1427;48.510;9.060;2023-05-13T14:57:09;48.40;;;4.63;;
2838;SDS011;1427;48.510;9.060;2023-05-13T14:59:37;49.00;;;4.63;;
2838;SDS011;1427;48.510;9.060;2023-05-13T15:02:05;49.00;;;5.13;;
2838;SDS011;1427;48.510;9.060;2023-05-13T15:04:34;50.17;;;5.10;;
2838;SDS011;1427;48.510;9.060;2023-05-13T15:07:02;59.00;;;5.27;;
2838;SDS011;1427;48.510;9.060;2023-05-13T15:09:32;50.80;;;5.20;;
2838;SDS011;1427;48.510;9.060;2023-05-13T15:12:00;50.80;;;5.50;;
2838;SDS011;1427;48.510;9.060;2023-05-13T15:14:28;48.80;;;4.80;;
2838;SDS011;1427;48.510;9.060;2023-05-13T15:16:56;48.27;;;5.00;;
2838;SDS011;1427;48.510;9.060;2023-05-13T15:19:25;48.50;;;3.97;;
2838;SDS011;1427;48.510;9.060;2023-05-13T15:21:53;49.30;;;5.13;;